Spencer, Indiana
Current Conditions -  °F | °C
As of 3:53 AM on Monday 20 Oct 2014 (Local Time) from KBMG Reporting Station
Overcast Overcast  
Wind Chill: 45°   Ceiling: 12000
Heat Index: 48°   Visibility: 10mi
Dew Point: 43°   Wind: 6mph
Humidity: 83%   Direction: 200°SSW
Pressure: 30.02"   Gusts: NA
Location:  39.29°N, 86.76°W
Report Text: KBMG 200753Z AUTO 20005KT 10SM FEW095 OVC120 09/06 A3002 RMK AO2 SLP163 T00890061
Loading
Personal Weather Stations






























Interactive Weather Map
Tropical Storm Tracking
New forecast layout! Learn more

10-Day Weather Forecast

Advertisements
Track Severe Weather on mobile